Time;durP1;ratioP1;P1;durP2;ratioP2;P2;SDS_P1;SDS_P2;PMS_P1;PMS_P2;Temp;Humidity;BMP_temperature;BMP_pressure;BME280_temperature;BME280_humidity;BME280_pressure;Samples;Min_cycle;Max_cycle;Signal;HPM_P1;HPM_P2
2019/06/07 00:00:24;;;;;;;30.5;27.5;;;;;;;;;;;;;
2019/06/07 00:02:43;;;;;;;32.1;28.8;;;;;;;;;;;;;
2019/06/07 00:05:20;;;;;;;33;29.5;;;;;;;;;;;;;
2019/06/07 00:07:38;;;;;;;31.7;28.5;;;;;;;;;;;;;
2019/06/07 00:10:03;;;;;;;27.9;25.3;;;;;;;;;;;;;
2019/06/07 00:12:28;;;;;;;28.4;25.5;;;;;;;;;;;;;
2019/06/07 00:15:01;;;;;;;29.7;26.7;;;;;;;;;;;;;
2019/06/07 00:17:18;;;;;;;29.4;26.4;;;;;;;;;;;;;
2019/06/07 00:19:45;;;;;;;31.4;28.1;;;;;;;;;;;;;
2019/06/07 00:22:08;;;;;;;29.9;26.9;;;;;;;;;;;;;
2019/06/07 00:24:38;;;;;;;30.1;27;;;;;;;;;;;;;
2019/06/07 00:27:04;;;;;;;30;26.9;;;;;;;;;;;;;
2019/06/07 00:29:32;;;;;;;32.1;28.7;;;;;;;;;;;;;
2019/06/07 00:31:55;;;;;;;32.1;28.9;;;;;;;;;;;;;
2019/06/07 00:34:23;;;;;;;33.9;30.3;;;;;;;;;;;;;
2019/06/07 00:36:49;;;;;;;36.8;32.9;;;;;;;;;;;;;
2019/06/07 00:39:17;;;;;;;35.1;31.4;;;;;;;;;;;;;
2019/06/07 00:41:47;;;;;;;32.9;29.4;;;;;;;;;;;;;
2019/06/07 00:44:08;;;;;;;32.7;29.3;;;;;;;;;;;;;
2019/06/07 00:46:42;;;;;;;32.4;29.2;;;;;;;;;;;;;
2019/06/07 00:49:08;;;;;;;31.8;28.6;;;;;;;;;;;;;
2019/06/07 00:51:35;;;;;;;33.2;29.6;;;;;;;;;;;;;
2019/06/07 00:53:58;;;;;;;33.4;30;;;;;;;;;;;;;
2019/06/07 00:56:24;;;;;;;31.6;28.3;;;;;;;;;;;;;
2019/06/07 00:58:49;;;;;;;33.7;30.4;;;;;;;;;;;;;
2019/06/07 01:01:17;;;;;;;31.2;28.1;;;;;;;;;;;;;
2019/06/07 01:03:41;;;;;;;32;28.9;;;;;;;;;;;;;
2019/06/07 01:06:04;;;;;;;30;27.1;;;;;;;;;;;;;
2019/06/07 01:08:28;;;;;;;30.2;27.2;;;;;;;;;;;;;
2019/06/07 01:10:57;;;;;;;32.5;29.1;;;;;;;;;;;;;
2019/06/07 01:13:20;;;;;;;33.2;29.5;;;;;;;;;;;;;
2019/06/07 01:15:48;;;;;;;30.7;27.7;;;;;;;;;;;;;
2019/06/07 01:18:10;;;;;;;28.8;26;;;;;;;;;;;;;
2019/06/07 01:20:34;;;;;;;30.2;26.9;;;;;;;;;;;;;
2019/06/07 01:23:03;;;;;;;29.4;26.5;;;;;;;;;;;;;
2019/06/07 01:25:33;;;;;;;27.3;24.6;;;;;;;;;;;;;
2019/06/07 01:27:56;;;;;;;26.3;23.6;;;;;;;;;;;;;
2019/06/07 01:30:21;;;;;;;25.1;22.6;;;;;;;;;;;;;
2019/06/07 01:32:45;;;;;;;25.2;22.5;;;;;;;;;;;;;
2019/06/07 01:35:15;;;;;;;24.8;22.3;;;;;;;;;;;;;
2019/06/07 01:37:42;;;;;;;25;22.4;;;;;;;;;;;;;
2019/06/07 01:40:15;;;;;;;26.1;23.5;;;;;;;;;;;;;
2019/06/07 01:42:48;;;;;;;25.1;22.8;;;;;;;;;;;;;
2019/06/07 01:45:19;;;;;;;25.4;22.9;;;;;;;;;;;;;
2019/06/07 01:47:42;;;;;;;26;23.6;;;;;;;;;;;;;
2019/06/07 01:50:06;;;;;;;28;25;;;;;;;;;;;;;
2019/06/07 01:52:34;;;;;;;26.4;23.7;;;;;;;;;;;;;
2019/06/07 01:54:59;;;;;;;26.9;24.3;;;;;;;;;;;;;
2019/06/07 01:57:30;;;;;;;30.4;27.4;;;;;;;;;;;;;
2019/06/07 01:59:55;;;;;;;34.9;31.3;;;;;;;;;;;;;
2019/06/07 02:02:35;;;;;;;35.9;32.1;;;;;;;;;;;;;
2019/06/07 02:04:57;;;;;;;35.3;31.6;;;;;;;;;;;;;
2019/06/07 02:07:24;;;;;;;37.6;33.7;;;;;;;;;;;;;
2019/06/07 02:09:47;;;;;;;39;34.3;;;;;;;;;;;;;
2019/06/07 02:12:17;;;;;;;40.2;34.5;;;;;;;;;;;;;
2019/06/07 02:14:44;;;;;;;44.6;36.3;;;;;;;;;;;;;
2019/06/07 02:17:11;;;;;;;36.7;32.7;;;;;;;;;;;;;
2019/06/07 02:19:45;;;;;;;35.9;32.2;;;;;;;;;;;;;
2019/06/07 02:22:11;;;;;;;36.9;33;;;;;;;;;;;;;
2019/06/07 02:24:41;;;;;;;36.7;32.9;;;;;;;;;;;;;
2019/06/07 02:32:29;;;;;;;37.4;32.3;;;;;;;;;;;;;
2019/06/07 02:34:54;;;;;;;35;31.2;;;;;;;;;;;;;
2019/06/07 02:37:21;;;;;;;39.7;33.3;;;;;;;;;;;;;
2019/06/07 02:39:49;;;;;;;37.3;32.6;;;;;;;;;;;;;
2019/06/07 02:42:12;;;;;;;38;32;;;;;;;;;;;;;
2019/06/07 02:44:35;;;;;;;38.5;32.1;;;;;;;;;;;;;
2019/06/07 02:47:02;;;;;;;50.4;37.7;;;;;;;;;;;;;
2019/06/07 02:49:27;;;;;;;45.4;37.2;;;;;;;;;;;;;
2019/06/07 02:51:53;;;;;;;40.8;34;;;;;;;;;;;;;
2019/06/07 02:54:16;;;;;;;40.5;33.7;;;;;;;;;;;;;
2019/06/07 02:56:49;;;;;;;40.5;32.6;;;;;;;;;;;;;
2019/06/07 02:59:11;;;;;;;36.7;31.6;;;;;;;;;;;;;
2019/06/07 03:02:26;;;;;;;38.3;32.4;;;;;;;;;;;;;
2019/06/07 03:04:53;;;;;;;32.2;28.3;;;;;;;;;;;;;
2019/06/07 03:07:16;;;;;;;28.1;24.3;;;;;;;;;;;;;
2019/06/07 03:09:42;;;;;;;27.5;24.5;;;;;;;;;;;;;
2019/06/07 03:12:10;;;;;;;26.7;23.8;;;;;;;;;;;;;
2019/06/07 03:14:35;;;;;;;29.2;26;;;;;;;;;;;;;
2019/06/07 03:17:14;;;;;;;30.6;25.5;;;;;;;;;;;;;
2019/06/07 03:19:35;;;;;;;27.8;24.8;;;;;;;;;;;;;
2019/06/07 03:21:57;;;;;;;29.7;26.1;;;;;;;;;;;;;
2019/06/07 03:24:26;;;;;;;27.3;24.4;;;;;;;;;;;;;
2019/06/07 03:26:48;;;;;;;26.6;23.5;;;;;;;;;;;;;
2019/06/07 03:29:13;;;;;;;27.1;23.4;;;;;;;;;;;;;
2019/06/07 03:31:45;;;;;;;27.9;23;;;;;;;;;;;;;
2019/06/07 03:34:05;;;;;;;26.4;22.4;;;;;;;;;;;;;
2019/06/07 03:36:30;;;;;;;25;22.2;;;;;;;;;;;;;
2019/06/07 03:38:56;;;;;;;24.1;21.5;;;;;;;;;;;;;
2019/06/07 03:41:25;;;;;;;23.4;20.9;;;;;;;;;;;;;
2019/06/07 03:43:48;;;;;;;25.2;21.4;;;;;;;;;;;;;
2019/06/07 03:46:12;;;;;;;24.7;20.7;;;;;;;;;;;;;
2019/06/07 03:48:42;;;;;;;21.6;19.3;;;;;;;;;;;;;
2019/06/07 03:51:09;;;;;;;22.1;19.1;;;;;;;;;;;;;
2019/06/07 03:53:39;;;;;;;21.7;18;;;;;;;;;;;;;
2019/06/07 03:56:00;;;;;;;19.7;17.7;;;;;;;;;;;;;
2019/06/07 03:58:25;;;;;;;19.2;17.1;;;;;;;;;;;;;
2019/06/07 04:09:18;;;;;;;20.5;15.4;;;;;;;12.35;85.63574;935.7388;;;;
2019/06/07 04:11:53;;;;;;;16.7;14.9;;;;;;;;;;;;;
2019/06/07 04:14:20;;;;;;;18.7;15.8;;;;;;;;;;;;;
2019/06/07 04:16:45;;;;;;;16.4;14.7;;;;;;;;;;;;;
2019/06/07 04:19:10;;;;;;;16.1;14.5;;;;;;;;;;;;;
2019/06/07 04:21:37;;;;;;;14.8;13.2;;;;;;;;;;;;;
2019/06/07 04:24:04;;;;;;;13.8;12.4;;;;;;;;;;;;;
2019/06/07 04:26:27;;;;;;;15.1;13.2;;;;;;;;;;;;;
2019/06/07 04:28:51;;;;;;;13.9;12.4;;;;;;;;;;;;;
2019/06/07 04:31:18;;;;;;;13.2;11.8;;;;;;;;;;;;;
2019/06/07 04:33:47;;;;;;;13.3;11.9;;;;;;;;;;;;;
2019/06/07 04:36:13;;;;;;;13.3;11.9;;;;;;;;;;;;;
2019/06/07 04:38:41;;;;;;;12.5;11.2;;;;;;;;;;;;;
2019/06/07 04:41:02;;;;;;;13.1;11.7;;;;;;;;;;;;;
2019/06/07 04:43:27;;;;;;;11.8;10.6;;;;;;;;;;;;;
2019/06/07 04:45:55;;;;;;;13.8;12.3;;;;;;;;;;;;;
2019/06/07 04:48:18;;;;;;;14.7;13;;;;;;;;;;;;;
2019/06/07 04:50:43;;;;;;;14.8;13.2;;;;;;;;;;;;;
2019/06/07 04:53:11;;;;;;;15.5;12.9;;;;;;;;;;;;;
2019/06/07 04:55:34;;;;;;;15;12.8;;;;;;;;;;;;;
2019/06/07 04:58:00;;;;;;;14.2;12.7;;;;;;;;;;;;;
2019/06/07 05:00:26;;;;;;;14.1;12.3;;;;;;;;;;;;;
2019/06/07 05:07:49;;;;;;;7.3;6.1;;;;;;;;;;;;;
2019/06/07 05:10:14;;;;;;;6.5;5.9;;;;;;;;;;;;;
2019/06/07 05:12:39;;;;;;;5.9;5.3;;;;;;;;;;;;;
2019/06/07 05:20:16;;;;;;;5.3;4.8;;;;;;;;;;;;;
2019/06/07 05:22:38;;;;;;;6.9;5.5;;;;;;;;;;;;;
2019/06/07 05:25:01;;;;;;;5.9;5;;;;;;;;;;;;;
2019/06/07 05:27:29;;;;;;;5.3;4.7;;;;;;;;;;;;;
2019/06/07 05:29:55;;;;;;;6.9;4.8;;;;;;;;;;;;;
2019/06/07 05:32:27;;;;;;;5.9;4.5;;;;;;;;;;;;;
2019/06/07 05:34:54;;;;;;;4.4;4;;;;;;;;;;;;;
2019/06/07 05:37:22;;;;;;;7.4;4.3;;;;;;;;;;;;;
2019/06/07 05:39:48;;;;;;;4.5;3.7;;;;;;;;;;;;;
2019/06/07 05:42:11;;;;;;;7;4.1;;;;;;;;;;;;;
2019/06/07 05:44:40;;;;;;;6.3;3.9;;;;;;;;;;;;;
2019/06/07 05:47:06;;;;;;;6;3.7;;;;;;;;;;;;;
2019/06/07 05:49:38;;;;;;;4.7;3.5;;;;;;;;;;;;;
2019/06/07 05:52:14;;;;;;;5.1;3.3;;;;;;;;;;;;;
2019/06/07 05:54:40;;;;;;;5;3.1;;;;;;;;;;;;;
2019/06/07 05:57:07;;;;;;;6.3;3.2;;;;;;;;;;;;;
2019/06/07 05:59:31;;;;;;;6.1;3.4;;;;;;;;;;;;;
2019/06/07 06:01:58;;;;;;;3.6;3.3;;;;;;;;;;;;;
2019/06/07 06:04:21;;;;;;;4.3;3.2;;;;;;;;;;;;;
2019/06/07 06:06:47;;;;;;;4;3.2;;;;;;;;;;;;;
2019/06/07 06:09:13;;;;;;;4.2;2.8;;;;;;;;;;;;;
2019/06/07 06:11:40;;;;;;;4.6;2.3;;;;;;;;;;;;;
2019/06/07 06:14:06;;;;;;;4.4;2.4;;;;;;;;;;;;;
2019/06/07 06:16:37;;;;;;;4.4;2.7;;;;;;;;;;;;;
2019/06/07 06:19:04;;;;;;;4.5;2.4;;;;;;;;;;;;;
2019/06/07 06:21:31;;;;;;;4.1;2.4;;;;;;;;;;;;;
2019/06/07 06:24:01;;;;;;;4.7;2.4;;;;;;;;;;;;;
2019/06/07 06:26:24;;;;;;;3.4;2.3;;;;;;;;;;;;;
2019/06/07 06:28:58;;;;;;;4.5;2.4;;;;;;;;;;;;;
2019/06/07 06:31:27;;;;;;;3.7;2.4;;;;;;;;;;;;;
2019/06/07 06:33:49;;;;;;;2.8;2.4;;;;;;;;;;;;;
2019/06/07 06:36:17;;;;;;;3.1;2.4;;;;;;;;;;;;;
2019/06/07 06:38:47;;;;;;;4.6;2.4;;;;;;;;;;;;;
2019/06/07 06:41:12;;;;;;;3.3;2.1;;;;;;;;;;;;;
2019/06/07 06:43:37;;;;;;;3.9;2.3;;;;;;;;;;;;;
2019/06/07 06:46:07;;;;;;;4.7;2.3;;;;;;;;;;;;;
2019/06/07 06:48:30;;;;;;;3.5;2.2;;;;;;;;;;;;;
2019/06/07 06:51:00;;;;;;;3.8;2.4;;;;;;;;;;;;;
2019/06/07 06:53:36;;;;;;;4.8;2.2;;;;;;;;;;;;;
2019/06/07 06:55:54;;;;;;;3.8;2.3;;;;;;;;;;;;;
2019/06/07 06:58:21;;;;;;;2.8;2;;;;;;;;;;;;;
2019/06/07 07:00:46;;;;;;;4.7;2.2;;;;;;;;;;;;;
2019/06/07 07:03:12;;;;;;;3.4;2.2;;;;;;;;;;;;;
2019/06/07 07:05:38;;;;;;;3.7;2;;;;;;;;;;;;;
2019/06/07 07:08:12;;;;;;;2.7;2.1;;;;;;;;;;;;;
2019/06/07 07:10:34;;;;;;;4;2.1;;;;;;;;;;;;;
2019/06/07 07:13:02;;;;;;;3.1;2.2;;;;;;;;;;;;;
2019/06/07 07:15:25;;;;;;;4.2;2.2;;;;;;;;;;;;;
2019/06/07 07:17:51;;;;;;;3.5;2.1;;;;;;;;;;;;;
2019/06/07 07:20:27;;;;;;;4.4;2.2;;;;;;;;;;;;;
2019/06/07 07:22:49;;;;;;;5.4;2;;;;;;;;;;;;;
2019/06/07 07:25:22;;;;;;;4.3;2.1;;;;;;;;;;;;;
2019/06/07 07:27:50;;;;;;;3.6;1.7;;;;;;;;;;;;;
2019/06/07 07:30:24;;;;;;;3.5;1.8;;;;;;;;;;;;;
2019/06/07 07:32:49;;;;;;;5.1;1.9;;;;;;;;;;;;;
2019/06/07 07:35:13;;;;;;;7.4;2.1;;;;;;;;;;;;;
2019/06/07 07:37:40;;;;;;;4.6;1.9;;;;;;;;;;;;;
2019/06/07 07:40:09;;;;;;;6.1;2;;;;;;;;;;;;;
2019/06/07 07:42:31;;;;;;;3.3;1.9;;;;;;;;;;;;;
2019/06/07 07:45:01;;;;;;;5.9;1.9;;;;;;;;;;;;;
2019/06/07 07:47:26;;;;;;;4.1;1.9;;;;;;;;;;;;;
2019/06/07 07:49:57;;;;;;;3.7;2;;;;;;;;;;;;;
2019/06/07 07:52:22;;;;;;;6.2;2.2;;;;;;;;;;;;;
2019/06/07 07:54:54;;;;;;;4.4;2.1;;;;;;;;;;;;;
2019/06/07 07:57:26;;;;;;;5;1.9;;;;;;;;;;;;;
2019/06/07 07:59:51;;;;;;;3.1;2;;;;;;;;;;;;;
2019/06/07 08:02:18;;;;;;;3.4;2;;;;;;;;;;;;;
2019/06/07 08:04:45;;;;;;;3.8;1.9;;;;;;;;;;;;;
2019/06/07 08:07:21;;;;;;;4.8;2.1;;;;;;;;;;;;;
2019/06/07 08:09:37;;;;;;;4.7;2.1;;;;;;;;;;;;;
2019/06/07 08:12:02;;;;;;;7.2;2.4;;;;;;;;;;;;;
2019/06/07 08:14:28;;;;;;;2.6;2.1;;;;;;;;;;;;;
2019/06/07 08:17:01;;;;;;;5.6;2.2;;;;;;;;;;;;;
2019/06/07 08:19:33;;;;;;;2.9;2;;;;;;;;;;;;;
2019/06/07 08:22:02;;;;;;;3.7;2.1;;;;;;;;;;;;;
2019/06/07 08:24:27;;;;;;;3.1;2;;;;;;;;;;;;;
2019/06/07 08:26:52;;;;;;;3.5;2.1;;;;;;;;;;;;;
2019/06/07 08:29:20;;;;;;;3.9;1.9;;;;;;;;;;;;;
2019/06/07 08:31:47;;;;;;;3.3;1.8;;;;;;;;;;;;;
2019/06/07 08:34:11;;;;;;;3.5;2.1;;;;;;;;;;;;;
2019/06/07 08:36:40;;;;;;;4.4;2.4;;;;;;;;;;;;;
2019/06/07 08:39:04;;;;;;;5;2.1;;;;;;;;;;;;;
2019/06/07 08:41:35;;;;;;;2.9;2.1;;;;;;;;;;;;;
2019/06/07 08:44:00;;;;;;;4.1;2;;;;;;;;;;;;;
2019/06/07 08:46:28;;;;;;;2.7;1.9;;;;;;;;;;;;;
2019/06/07 08:48:52;;;;;;;6.1;2.2;;;;;;;;;;;;;
2019/06/07 08:51:30;;;;;;;3.7;2.2;;;;;;;;;;;;;
2019/06/07 08:53:57;;;;;;;4.9;2.3;;;;;;;;;;;;;
2019/06/07 08:56:22;;;;;;;3.6;2.4;;;;;;;;;;;;;
2019/06/07 08:58:48;;;;;;;3.5;2.1;;;;;;;;;;;;;
2019/06/07 09:01:15;;;;;;;3.9;2.1;;;;;;;;;;;;;
2019/06/07 09:03:39;;;;;;;3.9;2.3;;;;;;;;;;;;;
2019/06/07 09:06:05;;;;;;;6.5;2.1;;;;;;;;;;;;;
2019/06/07 09:08:30;;;;;;;3.7;2.3;;;;;;;;;;;;;
2019/06/07 09:10:57;;;;;;;3.5;2.2;;;;;;;;;;;;;
2019/06/07 09:13:21;;;;;;;3.7;2;;;;;;;;;;;;;
2019/06/07 09:15:59;;;;;;;3.8;2.2;;;;;;;;;;;;;
2019/06/07 09:18:16;;;;;;;4.7;2.2;;;;;;;;;;;;;
2019/06/07 09:20:41;;;;;;;4.3;2.2;;;;;;;;;;;;;
2019/06/07 09:23:11;;;;;;;5.3;2.4;;;;;;;;;;;;;
2019/06/07 09:25:34;;;;;;;4.5;2.5;;;;;;;;;;;;;
2019/06/07 09:28:01;;;;;;;4.2;2.2;;;;;;;;;;;;;
2019/06/07 09:30:23;;;;;;;4.9;2.2;;;;;;;;;;;;;
2019/06/07 09:32:55;;;;;;;6.1;2.3;;;;;;;;;;;;;
2019/06/07 09:35:27;;;;;;;5.1;2.5;;;;;;;;;;;;;
2019/06/07 09:37:44;;;;;;;5.4;2.3;;;;;;;;;;;;;
2019/06/07 09:40:09;;;;;;;4.2;2.2;;;;;;;;;;;;;
2019/06/07 09:42:32;;;;;;;3.1;2.2;;;;;;;;;;;;;
2019/06/07 09:44:57;;;;;;;3.4;2.3;;;;;;;;;;;;;
2019/06/07 09:47:26;;;;;;;2.8;2.2;;;;;;;;;;;;;
2019/06/07 09:49:57;;;;;;;6.7;2.6;;;;;;;;;;;;;
2019/06/07 09:52:26;;;;;;;4.1;2.5;;;;;;;;;;;;;
2019/06/07 09:54:48;;;;;;;4;2.4;;;;;;;;;;;;;
2019/06/07 09:57:14;;;;;;;4.4;2.5;;;;;;;;;;;;;
2019/06/07 09:59:39;;;;;;;6.1;2.7;;;;;;;;;;;;;
2019/06/07 10:02:09;;;;;;;3.5;2.4;;;;;;;;;;;;;
2019/06/07 10:04:43;;;;;;;4.8;2.5;;;;;;;;;;;;;
2019/06/07 10:07:11;;;;;;;3.2;2.1;;;;;;;;;;;;;
2019/06/07 10:09:34;;;;;;;4;2.4;;;;;;;;;;;;;
2019/06/07 10:11:59;;;;;;;3.8;2.3;;;;;;;;;;;;;
2019/06/07 10:14:25;;;;;;;3.1;2.2;;;;;;;;;;;;;
2019/06/07 10:16:56;;;;;;;3.5;2.2;;;;;;;;;;;;;
2019/06/07 10:19:16;;;;;;;3.3;2.2;;;;;;;;;;;;;
2019/06/07 10:21:41;;;;;;;2.8;2;;;;;;;;;;;;;
2019/06/07 10:24:06;;;;;;;4.8;2.1;;;;;;;;;;;;;
2019/06/07 10:26:37;;;;;;;5.2;2.4;;;;;;;;;;;;;
2019/06/07 10:28:56;;;;;;;5.4;2.2;;;;;;;;;;;;;
2019/06/07 10:31:22;;;;;;;4;2.2;;;;;;;;;;;;;
2019/06/07 10:33:46;;;;;;;3.9;2.1;;;;;;;;;;;;;
2019/06/07 10:36:15;;;;;;;3.5;2.2;;;;;;;;;;;;;
2019/06/07 10:38:40;;;;;;;4.6;2.2;;;;;;;;;;;;;
2019/06/07 10:41:03;;;;;;;5.1;2.3;;;;;;;;;;;;;
2019/06/07 10:43:28;;;;;;;3.2;2;;;;;;;;;;;;;
2019/06/07 10:45:54;;;;;;;4.5;2.3;;;;;;;;;;;;;
2019/06/07 10:48:18;;;;;;;4.5;2.3;;;;;;;;;;;;;
2019/06/07 10:50:43;;;;;;;3.1;2.1;;;;;;;;;;;;;
2019/06/07 10:53:09;;;;;;;3.8;2.1;;;;;;;;;;;;;
2019/06/07 10:55:35;;;;;;;3.8;1.9;;;;;;;;;;;;;
2019/06/07 10:58:00;;;;;;;4.3;2.2;;;;;;;;;;;;;
2019/06/07 11:00:26;;;;;;;3.3;2.2;;;;;;;;;;;;;
2019/06/07 11:02:53;;;;;;;4.1;2;;;;;;;;;;;;;
2019/06/07 11:05:17;;;;;;;4.4;2.3;;;;;;;;;;;;;
2019/06/07 11:07:45;;;;;;;4.5;2.2;;;;;;;;;;;;;
2019/06/07 11:10:13;;;;;;;5.1;2.1;;;;;;;;;;;;;
2019/06/07 11:12:36;;;;;;;3.5;2.2;;;;;;;;;;;;;
2019/06/07 11:15:06;;;;;;;3;2;;;;;;;;;;;;;
2019/06/07 11:17:29;;;;;;;3.7;2.1;;;;;;;;;;;;;
2019/06/07 11:19:58;;;;;;;4.8;2.2;;;;;;;;;;;;;
2019/06/07 11:22:26;;;;;;;3;2;;;;;;;;;;;;;
2019/06/07 11:24:49;;;;;;;6.7;2.2;;;;;;;;;;;;;
2019/06/07 11:27:16;;;;;;;3.4;2;;;;;;;;;;;;;
2019/06/07 11:29:43;;;;;;;3.4;2.3;;;;;;;;;;;;;
2019/06/07 11:32:07;;;;;;;6.9;2.3;;;;;;;;;;;;;
2019/06/07 11:34:31;;;;;;;3.2;2.1;;;;;;;;;;;;;
2019/06/07 11:36:57;;;;;;;4.1;2.2;;;;;;;;;;;;;
2019/06/07 11:39:33;;;;;;;5.3;2.1;;;;;;;;;;;;;
2019/06/07 11:41:57;;;;;;;2.7;2;;;;;;;;;;;;;
2019/06/07 11:44:23;;;;;;;2.9;2;;;;;;;;;;;;;
2019/06/07 11:46:50;;;;;;;4.8;2.2;;;;;;;;;;;;;
2019/06/07 11:49:15;;;;;;;4.5;2.4;;;;;;;;;;;;;
2019/06/07 11:51:39;;;;;;;4.8;2.2;;;;;;;;;;;;;
2019/06/07 11:54:05;;;;;;;5.6;2.1;;;;;;;;;;;;;
2019/06/07 11:56:34;;;;;;;3.8;2.3;;;;;;;;;;;;;
2019/06/07 11:58:58;;;;;;;5;2.2;;;;;;;;;;;;;
2019/06/07 12:01:24;;;;;;;5.3;2.1;;;;;;;;;;;;;
2019/06/07 12:03:52;;;;;;;8.3;2.8;;;;;;;;;;;;;
2019/06/07 12:06:17;;;;;;;6;2.2;;;;;;;;;;;;;
2019/06/07 12:08:39;;;;;;;7;2.3;;;;;;;;;;;;;
2019/06/07 12:11:12;;;;;;;4.1;2;;;;;;;;;;;;;
2019/06/07 12:13:42;;;;;;;3.4;2.3;;;;;;;;;;;;;
2019/06/07 12:16:20;;;;;;;6.2;2.5;;;;;;;;;;;;;
2019/06/07 12:18:47;;;;;;;3.8;2.4;;;;;;;;;;;;;
2019/06/07 12:21:12;;;;;;;5.2;2.3;;;;;;;;;;;;;
2019/06/07 12:23:38;;;;;;;6.1;2.5;;;;;;;;;;;;;
2019/06/07 12:26:06;;;;;;;3.2;2.1;;;;;;;;;;;;;
2019/06/07 12:28:33;;;;;;;4.4;2.2;;;;;;;;;;;;;
2019/06/07 12:30:53;;;;;;;5.2;2.3;;;;;;;;;;;;;
2019/06/07 12:33:20;;;;;;;5.2;2.2;;;;;;;;;;;;;
2019/06/07 12:35:47;;;;;;;4;2.3;;;;;;;;;;;;;
2019/06/07 12:38:11;;;;;;;3.9;2.1;;;;;;;;;;;;;
2019/06/07 12:40:36;;;;;;;5.1;2.3;;;;;;;;;;;;;
2019/06/07 12:43:03;;;;;;;4.6;2.4;;;;;;;;;;;;;
2019/06/07 12:45:27;;;;;;;4.6;2.2;;;;;;;;;;;;;
2019/06/07 12:48:04;;;;;;;3.5;2.1;;;;;;;;;;;;;
2019/06/07 12:50:28;;;;;;;5.4;2.3;;;;;;;;;;;;;
2019/06/07 12:55:29;;;;;;;4.2;2.4;;;;;;;;;;;;;
2019/06/07 12:57:56;;;;;;;4.9;2.1;;;;;;;;;;;;;
2019/06/07 13:00:23;;;;;;;6.2;2.3;;;;;;;;;;;;;
2019/06/07 13:02:47;;;;;;;5.4;2.1;;;;;;;;;;;;;
2019/06/07 13:05:20;;;;;;;4.1;2.1;;;;;;;;;;;;;
2019/06/07 13:07:53;;;;;;;5.2;2.3;;;;;;;;;;;;;
2019/06/07 13:10:27;;;;;;;4.9;2.3;;;;;;;;;;;;;
2019/06/07 13:12:53;;;;;;;4.9;2.3;;;;;;;;;;;;;
2019/06/07 13:15:20;;;;;;;3;2.2;;;;;;;;;;;;;
2019/06/07 13:17:46;;;;;;;4.8;2.2;;;;;;;;;;;;;
2019/06/07 13:20:11;;;;;;;4.9;2.3;;;;;;;;;;;;;
2019/06/07 13:22:43;;;;;;;2.6;2.3;;;;;;;;;;;;;
2019/06/07 13:25:11;;;;;;;6;2.1;;;;;;;;;;;;;
2019/06/07 13:27:37;;;;;;;3;2.2;;;;;;;;;;;;;
2019/06/07 13:30:05;;;;;;;5.3;2.2;;;;;;;;;;;;;
2019/06/07 13:32:29;;;;;;;4.7;2.3;;;;;;;;;;;;;
2019/06/07 13:34:56;;;;;;;3.2;2.3;;;;;;;;;;;;;
2019/06/07 13:37:23;;;;;;;4.8;2.4;;;;;;;;;;;;;
2019/06/07 13:39:50;;;;;;;4;2.2;;;;;;;;;;;;;
2019/06/07 13:42:14;;;;;;;3.8;2.3;;;;;;;;;;;;;
2019/06/07 13:44:38;;;;;;;3.6;2.4;;;;;;;;;;;;;
2019/06/07 13:47:12;;;;;;;6.3;2.4;;;;;;;;;;;;;
2019/06/07 13:49:43;;;;;;;6;2.3;;;;;;;;;;;;;
2019/06/07 13:52:08;;;;;;;6.8;2.3;;;;;;;;;;;;;
2019/06/07 13:54:41;;;;;;;5.5;2.3;;;;;;;;;;;;;
2019/06/07 13:57:09;;;;;;;6.1;2.3;;;;;;;;;;;;;
2019/06/07 13:59:32;;;;;;;5.1;2.5;;;;;;;;;;;;;
2019/06/07 14:02:01;;;;;;;4.7;2.2;;;;;;;;;;;;;
2019/06/07 14:04:30;;;;;;;4.2;2.6;;;;;;;;;;;;;
2019/06/07 14:06:57;;;;;;;4.6;2.3;;;;;;;;;;;;;
2019/06/07 14:09:25;;;;;;;4.9;2.1;;;;;;;;;;;;;
2019/06/07 14:12:02;;;;;;;3.3;2.1;;;;;;;;;;;;;
2019/06/07 14:14:31;;;;;;;5.4;2.3;;;;;;;;;;;;;
2019/06/07 14:16:55;;;;;;;5.3;2.1;;;;;;;;;;;;;
2019/06/07 14:19:21;;;;;;;5.2;2.5;;;;;;;;;;;;;
2019/06/07 14:21:47;;;;;;;8.9;2.5;;;;;;;;;;;;;
2019/06/07 14:24:12;;;;;;;6.1;2.4;;;;;;;;;;;;;
2019/06/07 14:27:04;;;;;;;6.1;2.4;;;;;;;;;;;;;
2019/06/07 14:29:07;;;;;;;5.7;2.4;;;;;;;;;;;;;
2019/06/07 14:31:35;;;;;;;3.9;2.4;;;;;;;;;;;;;
2019/06/07 14:34:03;;;;;;;7.9;2.4;;;;;;;;;;;;;
2019/06/07 14:36:27;;;;;;;4.7;2.5;;;;;;;;;;;;;
2019/06/07 14:38:53;;;;;;;5.9;2.4;;;;;;;;;;;;;
2019/06/07 14:41:17;;;;;;;3.5;2.4;;;;;;;;;;;;;
2019/06/07 14:43:46;;;;;;;5.7;2.5;;;;;;;;;;;;;
2019/06/07 14:46:12;;;;;;;4.6;2.3;;;;;;;;;;;;;
2019/06/07 14:48:44;;;;;;;4.7;2.2;;;;;;;;;;;;;
2019/06/07 14:51:15;;;;;;;5;2.7;;;;;;;;;;;;;
2019/06/07 14:53:36;;;;;;;9.4;2.8;;;;;;;;;;;;;
2019/06/07 14:56:03;;;;;;;7.7;2.7;;;;;;;;;;;;;
2019/06/07 14:58:32;;;;;;;7.4;2.4;;;;;;;;;;;;;
2019/06/07 15:00:57;;;;;;;10.4;2.9;;;;;;;;;;;;;
2019/06/07 15:03:30;;;;;;;11.8;3.4;;;;;;;;;;;;;
2019/06/07 15:06:00;;;;;;;12.7;3.2;;;;;;;;;;;;;
2019/06/07 15:08:22;;;;;;;14.3;3.1;;;;;;;;;;;;;
2019/06/07 15:10:46;;;;;;;10.7;3.2;;;;;;;;;;;;;
2019/06/07 15:13:13;;;;;;;14.2;3.6;;;;;;;;;;;;;
2019/06/07 15:15:40;;;;;;;11.8;3.7;;;;;;;;;;;;;
2019/06/07 15:18:18;;;;;;;10.1;3.4;;;;;;;;;;;;;
2019/06/07 15:20:36;;;;;;;12.7;3.4;;;;;;;;;;;;;
2019/06/07 15:23:09;;;;;;;13.1;3.3;;;;;;;;;;;;;
2019/06/07 15:25:34;;;;;;;10.4;3.2;;;;;;;;;;;;;
2019/06/07 15:27:58;;;;;;;16.3;3.4;;;;;;;;;;;;;
2019/06/07 15:30:24;;;;;;;13.2;3.2;;;;;;;;;;;;;
2019/06/07 15:32:53;;;;;;;13.7;3.4;;;;;;;;;;;;;
2019/06/07 15:35:20;;;;;;;12.4;3.4;;;;;;;;;;;;;
2019/06/07 15:37:43;;;;;;;15.1;3.4;;;;;;;;;;;;;
2019/06/07 15:40:10;;;;;;;13.5;3.5;;;;;;;;;;;;;
2019/06/07 15:42:33;;;;;;;14;3.7;;;;;;;;;;;;;
2019/06/07 15:45:06;;;;;;;14.5;3.5;;;;;;;;;;;;;
2019/06/07 15:47:33;;;;;;;16.3;3.6;;;;;;;;;;;;;
2019/06/07 15:50:02;;;;;;;18.5;3.8;;;;;;;;;;;;;
2019/06/07 15:52:21;;;;;;;15.9;3.5;;;;;;;;;;;;;
2019/06/07 15:54:48;;;;;;;15.5;3.6;;;;;;;;;;;;;
2019/06/07 15:57:15;;;;;;;15.2;3.5;;;;;;;;;;;;;
2019/06/07 15:59:44;;;;;;;14.7;3.6;;;;;;;;;;;;;
2019/06/07 16:02:05;;;;;;;22.1;3.6;;;;;;;;;;;;;
2019/06/07 16:04:32;;;;;;;14.6;3.3;;;;;;;;;;;;;
2019/06/07 16:06:57;;;;;;;12.6;3.3;;;;;;;;;;;;;
2019/06/07 16:09:21;;;;;;;15.3;3.8;;;;;;;;;;;;;
2019/06/07 16:11:47;;;;;;;12.9;3.3;;;;;;;;;;;;;
2019/06/07 16:14:15;;;;;;;15.2;3.5;;;;;;;;;;;;;
2019/06/07 16:16:38;;;;;;;16;3.6;;;;;;;;;;;;;
2019/06/07 16:19:03;;;;;;;16.8;3.5;;;;;;;;;;;;;
2019/06/07 16:21:30;;;;;;;14.9;3.2;;;;;;;;;;;;;
2019/06/07 16:23:55;;;;;;;20.5;3.6;;;;;;;;;;;;;
2019/06/07 16:26:19;;;;;;;17.7;3.5;;;;;;;;;;;;;
2019/06/07 16:28:44;;;;;;;21.6;3.8;;;;;;;;;;;;;
2019/06/07 16:31:16;;;;;;;13.5;3.4;;;;;;;;;;;;;
2019/06/07 16:33:47;;;;;;;16.9;3.8;;;;;;;;;;;;;
2019/06/07 16:36:12;;;;;;;14.6;3.9;;;;;;;;;;;;;
2019/06/07 16:38:39;;;;;;;16.5;4;;;;;;;;;;;;;
2019/06/07 16:41:06;;;;;;;16.3;4;;;;;;;;;;;;;
2019/06/07 16:43:27;;;;;;;14.3;3.8;;;;;;;;;;;;;
2019/06/07 16:46:01;;;;;;;20.3;3.8;;;;;;;;;;;;;
2019/06/07 16:48:21;;;;;;;18.7;3.6;;;;;;;;;;;;;
2019/06/07 16:50:46;;;;;;;93.8;6.1;;;;;;;;;;;;;
2019/06/07 16:53:10;;;;;;;12.8;3.7;;;;;;;;;;;;;
2019/06/07 16:55:37;;;;;;;22.6;4.1;;;;;;;;;;;;;
2019/06/07 16:58:02;;;;;;;17.6;3.7;;;;;;;;;;;;;
2019/06/07 17:00:26;;;;;;;12.5;3.5;;;;;;;;;;;;;
2019/06/07 17:02:53;;;;;;;17.6;4.2;;;;;;;;;;;;;
2019/06/07 17:05:17;;;;;;;18.3;3.5;;;;;;;;;;;;;
2019/06/07 17:07:42;;;;;;;16.3;3.7;;;;;;;;;;;;;
2019/06/07 17:10:06;;;;;;;23.2;3.9;;;;;;;;;;;;;
2019/06/07 17:12:40;;;;;;;15.9;3.5;;;;;;;;;;;;;
2019/06/07 17:15:18;;;;;;;17.6;3.6;;;;;;;;;;;;;
2019/06/07 17:17:54;;;;;;;18.2;4;;;;;;;;;;;;;
2019/06/07 17:20:18;;;;;;;19.5;3.9;;;;;;;;;;;;;
2019/06/07 17:22:52;;;;;;;16.1;4.4;;;;;;;;;;;;;
2019/06/07 17:25:24;;;;;;;16.5;3.9;;;;;;;;;;;;;
2019/06/07 17:27:53;;;;;;;16.2;3.6;;;;;;;;;;;;;
2019/06/07 17:30:16;;;;;;;22.5;3.9;;;;;;;;;;;;;
2019/06/07 17:32:43;;;;;;;18.4;4.2;;;;;;;;;;;;;
2019/06/07 17:35:19;;;;;;;438.5;386.8;;;;;;;;;;;;;
2019/06/07 17:37:45;;;;;;;959;847.8;;;;;;;;;;;;;
2019/06/07 17:40:11;;;;;;;967.7;870.9;;;;;;;;;;;;;
2019/06/07 17:42:41;;;;;;;746.9;675.9;;;;;;;;;;;;;
2019/06/07 17:45:12;;;;;;;884.6;800.5;;;;;;;;;;;;;
2019/06/07 17:47:39;;;;;;;515.9;474.2;;;;;;;;;;;;;
2019/06/07 17:50:11;;;;;;;716.8;651.3;;;;;;;;;;;;;
2019/06/07 17:52:44;;;;;;;1013.2;894.1;;;;;;;;;;;;;
2019/06/07 17:55:17;;;;;;;806.8;736.3;;;;;;;;;;;;;
2019/06/07 17:57:40;;;;;;;897.9;816.6;;;;;;;;;;;;;
2019/06/07 18:00:11;;;;;;;673.5;614.9;;;;;;;;;;;;;
2019/06/07 18:02:42;;;;;;;1039.6;930.7;;;;;;;;;;;;;
2019/06/07 18:05:07;;;;;;;61.7;47.3;;;;;;;;;;;;;
2019/06/07 18:07:37;;;;;;;12.8;3.7;;;;;;;;;;;;;
2019/06/07 18:10:02;;;;;;;24.6;12.2;;;;;;;;;;;;;
2019/06/07 18:12:31;;;;;;;16;3.6;;;;;;;;;;;;;
2019/06/07 18:14:55;;;;;;;65.2;46.5;;;;;;;;;;;;;
2019/06/07 18:17:22;;;;;;;18;4;;;;;;;;;;;;;
2019/06/07 18:19:55;;;;;;;26.9;10.7;;;;;;;;;;;;;
2019/06/07 18:22:26;;;;;;;21.4;7.6;;;;;;;;;;;;;
2019/06/07 18:24:59;;;;;;;19.2;5.8;;;;;;;;;;;;;
2019/06/07 18:27:22;;;;;;;28;10.6;;;;;;;;;;;;;
2019/06/07 18:29:47;;;;;;;19.6;3.9;;;;;;;;;;;;;
2019/06/07 18:32:19;;;;;;;74.9;49;;;;;;;;;;;;;
2019/06/07 18:34:58;;;;;;;18;3.6;;;;;;;;;;;;;
2019/06/07 18:37:22;;;;;;;18.8;3.9;;;;;;;;;;;;;
2019/06/07 18:39:47;;;;;;;17.5;3.7;;;;;;;;;;;;;
2019/06/07 18:42:19;;;;;;;475.8;439;;;;;;;;;;;;;
2019/06/07 18:44:39;;;;;;;415.8;385.4;;;;;;;;;;;;;
2019/06/07 18:47:05;;;;;;;19.9;3.9;;;;;;;;;;;;;
2019/06/07 18:49:38;;;;;;;18.2;4;;;;;;;;;;;;;
2019/06/07 18:52:17;;;;;;;21.8;4;;;;;;;;;;;;;
2019/06/07 18:54:35;;;;;;;18.5;3.6;;;;;;;;;;;;;
2019/06/07 18:57:07;;;;;;;26.9;3.9;;;;;;;;;;;;;
2019/06/07 18:59:40;;;;;;;29.7;14.9;;;;;;;;;;;;;
2019/06/07 19:02:13;;;;;;;18.9;6.3;;;;;;;;;;;;;
2019/06/07 19:04:37;;;;;;;19;3.8;;;;;;;;;;;;;
2019/06/07 19:07:12;;;;;;;19.7;3.7;;;;;;;;;;;;;
2019/06/07 19:09:36;;;;;;;20.1;3.6;;;;;;;;;;;;;
2019/06/07 19:12:02;;;;;;;17.6;3.5;;;;;;;;;;;;;
2019/06/07 19:14:36;;;;;;;19.8;3.6;;;;;;;;;;;;;
2019/06/07 19:17:03;;;;;;;17.4;3.9;;;;;;;;;;;;;
2019/06/07 19:19:27;;;;;;;20.4;3.6;;;;;;;;;;;;;
2019/06/07 19:21:51;;;;;;;18.4;3.7;;;;;;;;;;;;;
2019/06/07 19:24:21;;;;;;;19.7;3.7;;;;;;;;;;;;;
2019/06/07 19:26:48;;;;;;;16;3.9;;;;;;;;;;;;;
2019/06/07 19:29:07;;;;;;;18.3;3.8;;;;;;;;;;;;;
2019/06/07 19:31:34;;;;;;;20.1;4.3;;;;;;;;;;;;;
2019/06/07 19:34:04;;;;;;;17.3;4.1;;;;;;;;;;;;;
2019/06/07 19:36:28;;;;;;;16.1;5.9;;;;;;;;;;;;;
2019/06/07 19:38:59;;;;;;;13.1;3.7;;;;;;;;;;;;;
2019/06/07 19:41:26;;;;;;;16.5;3.8;;;;;;;;;;;;;
2019/06/07 19:43:53;;;;;;;14.6;4.2;;;;;;;;;;;;;
2019/06/07 19:46:17;;;;;;;13.2;3.6;;;;;;;;;;;;;
2019/06/07 19:48:43;;;;;;;12;3.8;;;;;;;;;;;;;
2019/06/07 19:51:06;;;;;;;13.1;3.7;;;;;;;;;;;;;
2019/06/07 19:53:37;;;;;;;9.7;3.5;;;;;;;;;;;;;
2019/06/07 19:56:02;;;;;;;12.3;3.7;;;;;;;;;;;;;
2019/06/07 19:58:31;;;;;;;14.2;3.6;;;;;;;;;;;;;
2019/06/07 20:01:06;;;;;;;18.8;3.3;;;;;;;;;;;;;
2019/06/07 20:03:32;;;;;;;14.7;3.7;;;;;;;;;;;;;
2019/06/07 20:05:55;;;;;;;14.9;3.8;;;;;;;;;;;;;
2019/06/07 20:08:24;;;;;;;12.8;3.6;;;;;;;;;;;;;
2019/06/07 20:10:45;;;;;;;18.2;3.9;;;;;;;;;;;;;
2019/06/07 20:13:16;;;;;;;14.5;3.9;;;;;;;;;;;;;
2019/06/07 20:15:36;;;;;;;13;3.8;;;;;;;;;;;;;
2019/06/07 20:18:04;;;;;;;13.4;3.9;;;;;;;;;;;;;
2019/06/07 20:20:30;;;;;;;13.6;4;;;;;;;;;;;;;
2019/06/07 20:22:59;;;;;;;18.4;4.2;;;;;;;;;;;;;
2019/06/07 20:25:24;;;;;;;14.6;4.1;;;;;;;;;;;;;
2019/06/07 20:27:49;;;;;;;17.1;4.6;;;;;;;;;;;;;
2019/06/07 20:30:22;;;;;;;14.9;3.9;;;;;;;;;;;;;
2019/06/07 20:32:53;;;;;;;17.5;3.9;;;;;;;;;;;;;
2019/06/07 20:35:17;;;;;;;12.1;4;;;;;;;;;;;;;
2019/06/07 20:37:46;;;;;;;12;3.6;;;;;;;;;;;;;
2019/06/07 20:40:13;;;;;;;10.5;3.9;;;;;;;;;;;;;
2019/06/07 20:42:37;;;;;;;9.5;3.4;;;;;;;;;;;;;
2019/06/07 20:45:10;;;;;;;12.9;3.9;;;;;;;;;;;;;
2019/06/07 20:47:39;;;;;;;11;3.1;;;;;;;;;;;;;
2019/06/07 20:50:09;;;;;;;9.2;3.6;;;;;;;;;;;;;